createdAt,value
2023-04-16T00:00:36.840Z,79.80
2023-04-16T00:03:33.715Z,79.91
2023-04-16T00:06:14.017Z,80.07
2023-04-16T00:08:51.642Z,80.21
2023-04-16T00:11:28.066Z,80.30
2023-04-16T00:14:04.995Z,80.22
2023-04-16T00:16:41.510Z,80.20
2023-04-16T00:19:18.096Z,80.25
2023-04-16T00:21:54.317Z,80.38
2023-04-16T00:24:30.729Z,80.49
2023-04-16T00:27:07.908Z,80.54
2023-04-16T00:29:44.391Z,80.73
2023-04-16T00:32:20.634Z,80.80
2023-04-16T00:34:57.240Z,80.81
2023-04-16T00:37:33.509Z,80.94
2023-04-16T00:40:12.362Z,81.09
2023-04-16T00:42:48.827Z,81.09
2023-04-16T00:45:25.313Z,81.15
2023-04-16T00:48:04.224Z,81.13
2023-04-16T00:50:40.901Z,81.10
2023-04-16T00:53:18.369Z,81.18
2023-04-16T00:55:57.206Z,81.17
2023-04-16T00:58:35.038Z,81.22
2023-04-16T01:01:11.558Z,81.26
2023-04-16T01:03:52.118Z,81.25
2023-04-16T01:06:28.420Z,81.35
2023-04-16T01:09:04.889Z,81.40
2023-04-16T01:11:42.801Z,81.40
2023-04-16T01:14:19.393Z,81.43
2023-04-16T01:16:56.154Z,81.42
2023-04-16T01:19:36.529Z,81.51
2023-04-16T01:22:12.922Z,81.61
2023-04-16T01:24:49.178Z,81.66
2023-04-16T01:27:25.518Z,81.70
2023-04-16T01:30:01.907Z,81.80
2023-04-16T01:32:48.065Z,81.81
2023-04-16T01:35:24.487Z,81.81
2023-04-16T01:38:01.015Z,81.72
2023-04-16T01:40:37.777Z,81.71
2023-04-16T01:43:17.841Z,81.88
2023-04-16T01:45:58.385Z,82.10
2023-04-16T01:48:34.773Z,82.27
2023-04-16T01:51:11.858Z,82.36
2023-04-16T01:53:51.132Z,82.59
2023-04-16T01:56:27.746Z,82.76
2023-04-16T01:59:04.051Z,82.86
2023-04-16T02:01:45.232Z,83.00
2023-04-16T02:04:21.668Z,83.10
2023-04-16T02:06:58.262Z,83.12
2023-04-16T02:09:35.538Z,83.08
2023-04-16T02:12:14.408Z,82.97
2023-04-16T02:14:55.905Z,82.91
2023-04-16T02:17:34.862Z,82.82
2023-04-16T02:20:20.097Z,82.79
2023-04-16T02:23:05.493Z,82.80
2023-04-16T02:25:48.273Z,82.75
2023-04-16T02:28:24.867Z,82.66
2023-04-16T02:31:01.222Z,82.60
2023-04-16T02:33:38.507Z,82.61
2023-04-16T02:36:15.617Z,82.79
2023-04-16T02:38:51.893Z,82.99
2023-04-16T02:41:28.683Z,83.05
2023-04-16T02:44:07.580Z,83.06
2023-04-16T02:46:44.858Z,83.24
2023-04-16T02:49:21.220Z,83.20
2023-04-16T02:51:58.252Z,83.16
2023-04-16T02:54:34.685Z,83.09
2023-04-16T02:57:11.189Z,83.09
2023-04-16T02:59:47.581Z,83.14
2023-04-16T03:02:27.586Z,83.13
2023-04-16T03:05:04.229Z,83.01
2023-04-16T03:07:41.006Z,82.95
2023-04-16T03:10:17.932Z,83.08
2023-04-16T03:12:54.302Z,83.24
2023-04-16T03:15:31.171Z,83.35
2023-04-16T03:18:07.695Z,83.29
2023-04-16T03:20:43.934Z,83.22
2023-04-16T03:23:21.548Z,83.27
2023-04-16T03:25:58.019Z,83.39
2023-04-16T03:28:34.488Z,83.40
2023-04-16T03:31:11.392Z,83.43
2023-04-16T03:33:48.447Z,83.40
2023-04-16T03:36:25.503Z,83.40
2023-04-16T03:39:01.805Z,83.36
2023-04-16T03:41:38.797Z,83.55
2023-04-16T03:44:15.759Z,83.70
2023-04-16T03:46:52.210Z,83.76
2023-04-16T03:49:28.959Z,83.78
2023-04-16T03:52:06.598Z,83.68
2023-04-16T03:54:42.981Z,83.59
2023-04-16T03:57:30.950Z,83.48
2023-04-16T04:00:14.700Z,83.36
2023-04-16T04:02:50.991Z,83.31
2023-04-16T04:05:28.551Z,83.10
2023-04-16T04:08:05.364Z,83.04
2023-04-16T04:10:42.345Z,83.11
2023-04-16T04:13:20.793Z,83.00
2023-04-16T04:15:58.077Z,82.82
2023-04-16T04:18:36.360Z,82.80
2023-04-16T04:21:14.283Z,82.81
2023-04-16T04:23:50.626Z,82.94
2023-04-16T04:26:26.920Z,82.96
2023-04-16T04:29:03.380Z,82.91
2023-04-16T04:31:39.942Z,82.99
2023-04-16T04:34:17.422Z,82.94
2023-04-16T04:36:54.028Z,82.96
2023-04-16T04:39:30.698Z,82.81
2023-04-16T04:42:07.431Z,82.76
2023-04-16T04:44:44.207Z,82.52
2023-04-16T04:47:20.775Z,82.29
2023-04-16T04:49:57.247Z,82.04
2023-04-16T04:52:38.310Z,82.07
2023-04-16T04:55:18.678Z,81.25
2023-04-16T04:57:55.044Z,80.37
2023-04-16T05:00:31.291Z,79.30
2023-04-16T05:03:20.258Z,78.34
2023-04-16T05:06:00.003Z,76.88
2023-04-16T05:08:36.398Z,75.45
2023-04-16T05:11:13.640Z,74.03
2023-04-16T05:13:49.926Z,72.53
2023-04-16T05:16:26.315Z,71.03
2023-04-16T05:19:02.848Z,69.94
2023-04-16T05:21:39.893Z,68.66
2023-04-16T05:24:16.175Z,67.35
2023-04-16T05:26:53.703Z,65.93
2023-04-16T05:29:30.579Z,64.56
2023-04-16T05:32:07.110Z,63.69
2023-04-16T05:34:43.412Z,62.76
2023-04-16T05:37:19.786Z,61.52
2023-04-16T05:39:56.145Z,60.51
2023-04-16T05:42:32.447Z,59.53
2023-04-16T05:45:12.993Z,58.08
2023-04-16T05:47:50.449Z,57.52
2023-04-16T05:50:26.616Z,56.60
2023-04-16T05:53:03.552Z,56.12
2023-04-16T05:55:39.959Z,55.06
2023-04-16T05:58:16.430Z,54.85
2023-04-16T06:00:52.797Z,54.08
2023-04-16T06:03:29.458Z,53.60
2023-04-16T06:06:05.971Z,52.83
2023-04-16T06:08:42.303Z,52.64
2023-04-16T06:11:18.868Z,51.83
2023-04-16T06:13:59.752Z,51.24
2023-04-16T06:16:36.313Z,51.56
2023-04-16T06:19:12.892Z,51.12
2023-04-16T06:21:49.157Z,50.78
2023-04-16T06:24:25.804Z,50.04
2023-04-16T06:27:02.902Z,49.63
2023-04-16T06:29:41.446Z,48.31
2023-04-16T06:32:18.657Z,48.35
2023-04-16T06:34:56.457Z,48.84
2023-04-16T06:37:32.881Z,48.15
2023-04-16T06:40:13.322Z,47.72
2023-04-16T06:42:50.023Z,47.42
2023-04-16T06:45:26.414Z,46.52
2023-04-16T06:48:03.799Z,46.82
2023-04-16T06:50:40.549Z,46.59
2023-04-16T06:53:16.884Z,46.13
2023-04-16T06:55:54.589Z,46.49
2023-04-16T06:58:30.976Z,46.13
2023-04-16T07:01:07.786Z,45.87
2023-04-16T07:03:44.802Z,45.86
2023-04-16T07:06:21.627Z,44.98
2023-04-16T07:08:57.965Z,45.34
2023-04-16T07:11:36.721Z,44.37
2023-04-16T07:14:13.578Z,44.73
2023-04-16T07:16:49.985Z,44.74
2023-04-16T07:19:30.621Z,44.75
2023-04-16T07:22:07.574Z,44.64
2023-04-16T07:24:43.838Z,45.17
2023-04-16T07:27:20.189Z,44.43
2023-04-16T07:29:56.773Z,44.44
2023-04-16T07:32:33.404Z,44.87
2023-04-16T07:35:11.670Z,45.19
2023-04-16T07:37:49.145Z,45.13
2023-04-16T07:40:26.431Z,45.41
2023-04-16T07:43:02.824Z,44.38
2023-04-16T07:45:40.952Z,45.27
2023-04-16T07:48:17.963Z,45.95
2023-04-16T07:50:54.438Z,45.62
2023-04-16T07:53:30.806Z,44.94
2023-04-16T07:56:08.362Z,45.95
2023-04-16T07:58:44.828Z,45.43
2023-04-16T08:01:21.662Z,46.02
2023-04-16T08:03:58.712Z,46.09
2023-04-16T08:06:35.615Z,46.68
2023-04-16T08:09:12.632Z,46.50
2023-04-16T08:11:50.107Z,46.13
2023-04-16T08:14:26.682Z,45.60
2023-04-16T08:17:02.849Z,45.24
2023-04-16T08:19:39.324Z,44.79
2023-04-16T08:22:18.006Z,44.86
2023-04-16T08:24:54.590Z,45.35
2023-04-16T08:27:31.118Z,45.74
2023-04-16T08:30:09.569Z,44.56
2023-04-16T08:32:47.966Z,43.37
2023-04-16T08:35:28.280Z,43.82
2023-04-16T08:38:07.581Z,44.51
2023-04-16T08:40:45.151Z,43.60
2023-04-16T08:43:25.278Z,43.26
2023-04-16T08:46:02.366Z,42.45
2023-04-16T08:48:39.958Z,43.92
2023-04-16T08:51:20.826Z,43.47
2023-04-16T08:54:05.101Z,44.10
2023-04-16T08:56:44.558Z,43.89
2023-04-16T08:59:21.555Z,44.96
2023-04-16T09:02:01.467Z,44.58
2023-04-16T09:04:39.668Z,44.68
2023-04-16T09:07:18.189Z,45.62
2023-04-16T09:09:57.058Z,45.62
2023-04-16T09:12:35.601Z,45.32
2023-04-16T09:15:15.125Z,45.60
2023-04-16T09:17:51.863Z,45.14
2023-04-16T09:20:28.661Z,44.89
2023-04-16T09:23:05.091Z,45.95
2023-04-16T09:25:42.957Z,45.46
2023-04-16T09:28:47.133Z,46.46
2023-04-16T09:31:24.396Z,44.68
2023-04-16T09:34:12.393Z,44.29
2023-04-16T09:36:48.726Z,43.49
2023-04-16T09:39:27.965Z,43.61
2023-04-16T09:42:08.224Z,43.23
2023-04-16T09:44:44.937Z,43.16
2023-04-16T09:47:22.811Z,43.62
2023-04-16T09:50:03.440Z,44.51
2023-04-16T09:52:44.729Z,44.42
2023-04-16T09:55:28.291Z,45.71
2023-04-16T09:58:07.946Z,44.15
2023-04-16T10:00:45.797Z,43.77
2023-04-16T10:03:30.229Z,44.94
2023-04-16T10:06:18.222Z,45.46
2023-04-16T10:08:57.435Z,45.05
2023-04-16T10:11:34.443Z,45.11
2023-04-16T10:14:10.804Z,45.59
2023-04-16T10:16:47.688Z,45.24
2023-04-16T10:19:26.180Z,45.10
2023-04-16T10:22:02.835Z,45.83
2023-04-16T10:24:40.365Z,46.23
2023-04-16T10:27:24.041Z,46.81
2023-04-16T10:30:01.007Z,45.87
2023-04-16T10:32:39.429Z,46.37
2023-04-16T10:35:22.146Z,46.27
2023-04-16T10:38:26.081Z,46.31
2023-04-16T10:41:07.971Z,46.26
2023-04-16T10:43:51.392Z,46.27
2023-04-16T10:46:34.630Z,46.26
2023-04-16T10:49:24.446Z,45.88
2023-04-16T10:52:17.506Z,46.09
2023-04-16T10:54:56.637Z,46.08
2023-04-16T10:57:37.634Z,46.50
2023-04-16T11:00:29.454Z,46.19
2023-04-16T11:03:05.918Z,45.92
2023-04-16T11:05:52.311Z,46.40
2023-04-16T11:08:28.696Z,47.21
2023-04-16T11:11:07.967Z,47.64
2023-04-16T11:13:47.629Z,46.83
2023-04-16T11:16:25.810Z,45.96
2023-04-16T11:19:02.217Z,46.13
2023-04-16T11:21:38.967Z,46.35
2023-04-16T11:24:16.785Z,45.72
2023-04-16T11:26:55.765Z,46.11
2023-04-16T11:29:32.314Z,45.62
2023-04-16T11:32:09.364Z,45.10
2023-04-16T11:35:04.879Z,45.68
2023-04-16T11:37:43.691Z,45.42
2023-04-16T11:40:20.635Z,45.15
2023-04-16T11:42:59.289Z,45.79
2023-04-16T11:45:36.601Z,45.79
2023-04-16T11:48:13.218Z,45.48
2023-04-16T11:51:00.225Z,45.45
2023-04-16T11:53:37.766Z,45.42
2023-04-16T11:56:14.163Z,44.88
2023-04-16T11:59:11.776Z,45.83
2023-04-16T12:01:51.855Z,45.04
2023-04-16T12:04:30.511Z,44.35
2023-04-16T12:07:15.693Z,43.75
2023-04-16T12:09:52.118Z,43.82
2023-04-16T12:12:35.836Z,44.16
2023-04-16T12:15:14.054Z,43.70
2023-04-16T12:17:51.556Z,43.81
2023-04-16T12:20:27.980Z,43.16
2023-04-16T12:23:04.266Z,42.95
2023-04-16T12:25:44.072Z,43.35
2023-04-16T12:28:33.118Z,42.99
2023-04-16T12:31:10.852Z,42.56
2023-04-16T12:34:02.303Z,42.72
2023-04-16T12:36:39.053Z,42.10
2023-04-16T12:39:17.429Z,43.09
2023-04-16T12:41:53.993Z,43.76
2023-04-16T12:44:30.846Z,42.87
2023-04-16T12:47:07.603Z,42.61
2023-04-16T12:49:45.820Z,42.92
2023-04-16T12:52:23.734Z,43.24
2023-04-16T12:55:04.729Z,43.32
2023-04-16T12:57:41.108Z,43.78
2023-04-16T13:00:20.649Z,43.54
2023-04-16T13:02:57.027Z,42.73
2023-04-16T13:05:34.041Z,43.74
2023-04-16T13:08:11.175Z,43.64
2023-04-16T13:10:47.474Z,43.72
2023-04-16T13:13:23.833Z,42.97
2023-04-16T13:16:06.684Z,42.97
2023-04-16T13:18:43.153Z,43.58
2023-04-16T13:21:19.691Z,43.06
2023-04-16T13:23:57.284Z,44.24
2023-04-16T13:26:33.647Z,44.42
2023-04-16T13:29:10.375Z,43.48
2023-04-16T13:31:47.782Z,43.05
2023-04-16T13:34:24.390Z,42.39
2023-04-16T13:37:00.952Z,42.80
2023-04-16T13:39:37.913Z,43.17
2023-04-16T13:42:14.198Z,43.40
2023-04-16T13:44:53.274Z,43.91
2023-04-16T17:18:32.657Z,59.04
2023-04-16T17:21:15.849Z,59.34
2023-04-16T17:23:52.959Z,59.51
2023-04-16T17:26:29.333Z,59.79
2023-04-16T17:29:05.935Z,60.00
2023-04-16T17:31:42.813Z,60.23
2023-04-16T17:34:19.679Z,60.59
2023-04-16T17:36:56.020Z,61.09
2023-04-16T17:39:32.727Z,61.22
2023-04-16T17:42:09.646Z,61.18
2023-04-16T17:44:46.138Z,61.39
2023-04-16T17:47:22.751Z,61.66
2023-04-16T17:50:00.617Z,62.00
2023-04-16T17:52:37.806Z,62.46
2023-04-16T17:55:15.519Z,62.69
2023-04-16T17:57:51.857Z,62.95
2023-04-16T18:00:28.541Z,63.10
2023-04-16T18:03:05.188Z,63.30
2023-04-16T18:05:42.710Z,63.60
2023-04-16T18:08:19.368Z,63.89
2023-04-16T18:10:56.882Z,64.01
2023-04-16T18:13:33.234Z,64.18
2023-04-16T18:16:17.532Z,64.33
2023-04-16T18:18:53.911Z,64.54
2023-04-16T18:21:31.729Z,64.66
2023-04-16T18:24:11.586Z,64.85
2023-04-16T18:26:48.464Z,65.06
2023-04-16T18:29:25.480Z,65.28
2023-04-16T18:32:04.422Z,65.48
2023-04-16T18:34:41.742Z,65.71
2023-04-16T18:37:18.638Z,65.74
2023-04-16T18:39:57.786Z,65.76
2023-04-16T18:42:34.611Z,65.74
2023-04-16T18:45:19.598Z,65.76
2023-04-16T18:47:59.025Z,65.80
2023-04-16T18:50:38.061Z,65.96
2023-04-16T18:53:15.433Z,66.18
2023-04-16T18:55:55.616Z,66.16
2023-04-16T18:58:32.491Z,66.34
2023-04-16T19:01:13.666Z,66.43
2023-04-16T19:03:51.426Z,66.55
2023-04-16T19:06:29.355Z,66.72
2023-04-16T19:09:06.336Z,66.97
2023-04-16T19:11:43.251Z,67.17
2023-04-16T19:14:20.842Z,67.43
2023-04-16T19:16:57.689Z,67.60
2023-04-16T19:19:35.710Z,67.82
2023-04-16T19:22:14.009Z,68.17
2023-04-16T19:24:50.795Z,68.44
2023-04-16T19:27:29.825Z,68.78
2023-04-16T19:30:07.914Z,69.11
2023-04-16T19:32:44.327Z,69.45
2023-04-16T19:35:21.340Z,69.40
2023-04-16T19:38:01.886Z,69.58
2023-04-16T19:40:38.600Z,69.79
2023-04-16T19:43:15.161Z,69.98
2023-04-16T19:45:53.813Z,70.19
2023-04-16T19:48:31.946Z,70.28
2023-04-16T19:51:09.072Z,70.44
2023-04-16T19:53:45.647Z,70.37
2023-04-16T19:56:22.107Z,70.42
2023-04-16T19:59:02.172Z,70.60
2023-04-16T20:01:38.727Z,70.87
2023-04-16T20:04:15.184Z,71.13
2023-04-16T20:06:51.769Z,71.22
2023-04-16T20:09:30.058Z,71.30
2023-04-16T20:12:07.705Z,71.44
2023-04-16T20:14:44.151Z,71.57
2023-04-16T20:17:20.559Z,71.60
2023-04-16T20:20:00.901Z,71.57
2023-04-16T20:22:37.303Z,71.50
2023-04-16T20:25:19.073Z,71.40
2023-04-16T20:27:54.158Z,71.51
2023-04-16T20:30:31.162Z,71.78
2023-04-16T20:33:07.670Z,71.91
2023-04-16T20:35:44.181Z,72.03
2023-04-16T20:38:24.036Z,72.15
2023-04-16T20:41:12.494Z,72.32
2023-04-16T20:43:50.350Z,72.56
2023-04-16T20:46:30.278Z,72.93
2023-04-16T20:49:08.394Z,73.25
2023-04-16T20:51:44.892Z,73.39
2023-04-16T20:54:21.756Z,73.53
2023-04-16T20:56:58.335Z,73.68
2023-04-16T20:59:34.703Z,73.72
2023-04-16T21:02:11.330Z,73.88
2023-04-16T21:04:48.151Z,73.91
2023-04-16T21:07:24.496Z,73.90
2023-04-16T21:10:00.793Z,73.82
2023-04-16T21:12:37.757Z,73.79
2023-04-16T21:15:16.057Z,73.72
2023-04-16T21:17:52.337Z,73.67
2023-04-16T21:20:30.797Z,73.65
2023-04-16T21:23:07.728Z,73.69
2023-04-16T21:25:43.991Z,73.81
2023-04-16T21:28:20.541Z,73.77
2023-04-16T21:30:58.382Z,73.71
2023-04-16T21:33:34.985Z,73.75
2023-04-16T21:36:13.799Z,73.70
2023-04-16T21:38:50.112Z,73.70
2023-04-16T21:41:26.632Z,73.69
2023-04-16T21:44:03.074Z,73.64
2023-04-16T21:46:39.436Z,73.72
2023-04-16T21:49:17.659Z,74.00
2023-04-16T21:51:59.298Z,74.37
2023-04-16T21:54:35.681Z,74.49
2023-04-16T21:57:12.353Z,74.68
2023-04-16T21:59:48.556Z,74.90
2023-04-16T22:02:24.891Z,75.05
2023-04-16T22:05:01.975Z,75.10
2023-04-16T22:07:39.185Z,75.08
2023-04-16T22:10:16.726Z,75.01
2023-04-16T22:12:53.928Z,75.20
2023-04-16T22:15:31.876Z,75.40
2023-04-16T22:18:09.747Z,75.68
2023-04-16T22:20:47.390Z,75.85
2023-04-16T22:23:24.101Z,75.78
2023-04-16T22:26:02.693Z,75.90
2023-04-16T22:28:39.085Z,75.97
2023-04-16T22:31:15.550Z,75.96
2023-04-16T22:33:52.017Z,76.06
2023-04-16T22:36:28.490Z,76.23
2023-04-16T22:39:08.640Z,76.36
2023-04-16T22:41:45.612Z,76.45
2023-04-16T22:44:24.205Z,76.60
2023-04-16T22:47:01.904Z,76.66
2023-04-16T22:49:38.955Z,76.69
2023-04-16T22:52:15.168Z,76.67
2023-04-16T22:54:51.489Z,76.81
2023-04-16T22:57:28.017Z,76.70
2023-04-16T23:00:06.589Z,76.80
2023-04-16T23:02:43.177Z,76.98
2023-04-16T23:05:19.953Z,77.12
2023-04-16T23:07:59.092Z,77.20
2023-04-16T23:10:35.678Z,77.16
2023-04-16T23:13:12.059Z,77.21
2023-04-16T23:15:48.571Z,77.24
2023-04-16T23:18:24.982Z,77.34
2023-04-16T23:21:01.459Z,77.40
2023-04-16T23:23:42.470Z,77.49
2023-04-16T23:26:18.752Z,77.52
2023-04-16T23:28:55.046Z,77.56
2023-04-16T23:31:31.383Z,77.62
2023-04-16T23:34:07.811Z,77.68
2023-04-16T23:36:44.349Z,77.83
2023-04-16T23:39:20.803Z,77.96
2023-04-16T23:41:57.388Z,78.00
2023-04-16T23:44:34.877Z,78.15
2023-04-16T23:47:11.302Z,78.40
2023-04-16T23:49:47.623Z,78.48
2023-04-16T23:52:24.089Z,78.50
2023-04-16T23:55:00.553Z,78.58
2023-04-16T23:57:36.798Z,78.60
